sensor_id;sensor_type;location;lat;lon;timestamp;pressure;altitude;pressure_sealevel;temperature;humidity
55456;BME280;63021;52.836;6.376;2023-02-12T00:02:12;103871.56;;;5.65;79.58
55456;BME280;63021;52.836;6.376;2023-02-12T00:04:38;103869.00;;;5.60;78.80
55456;BME280;63021;52.836;6.376;2023-02-12T00:07:03;103870.81;;;5.58;79.33
55456;BME280;63021;52.836;6.376;2023-02-12T00:09:29;103857.88;;;5.49;78.98
55456;BME280;63021;52.836;6.376;2023-02-12T00:11:54;103867.56;;;5.48;79.02
55456;BME280;63021;52.836;6.376;2023-02-12T00:14:19;103879.91;;;5.48;79.37
55456;BME280;63021;52.836;6.376;2023-02-12T00:16:45;103877.44;;;5.40;79.59
55456;BME280;63021;52.836;6.376;2023-02-12T00:19:10;103881.03;;;5.37;78.89
55456;BME280;63021;52.836;6.376;2023-02-12T00:21:35;103882.88;;;5.34;79.16
55456;BME280;63021;52.836;6.376;2023-02-12T00:24:01;103885.56;;;5.32;79.19
55456;BME280;63021;52.836;6.376;2023-02-12T00:26:27;103889.06;;;5.34;79.22
55456;BME280;63021;52.836;6.376;2023-02-12T00:28:53;103892.59;;;5.33;79.60
55456;BME280;63021;52.836;6.376;2023-02-12T00:31:24;103897.88;;;5.33;79.87
55456;BME280;63021;52.836;6.376;2023-02-12T00:33:50;103893.44;;;5.34;79.31
55456;BME280;63021;52.836;6.376;2023-02-12T00:36:18;103889.94;;;5.33;79.04
55456;BME280;63021;52.836;6.376;2023-02-12T00:38:45;103892.59;;;5.33;79.76
55456;BME280;63021;52.836;6.376;2023-02-12T00:41:11;103891.69;;;5.33;79.23
55456;BME280;63021;52.836;6.376;2023-02-12T00:43:37;103882.09;;;5.30;79.46
55456;BME280;63021;52.836;6.376;2023-02-12T00:46:02;103878.56;;;5.30;79.25
55456;BME280;63021;52.836;6.376;2023-02-12T00:48:29;103888.19;;;5.32;79.70
55456;BME280;63021;52.836;6.376;2023-02-12T00:50:54;103891.69;;;5.33;79.41
55456;BME280;63021;52.836;6.376;2023-02-12T00:53:20;103896.97;;;5.33;79.54
55456;BME280;63021;52.836;6.376;2023-02-12T00:55:45;103892.59;;;5.33;79.58
55456;BME280;63021;52.836;6.376;2023-02-12T00:58:11;103889.09;;;5.31;79.67
55456;BME280;63021;52.836;6.376;2023-02-12T01:00:36;103894.38;;;5.31;79.36
55456;BME280;63021;52.836;6.376;2023-02-12T01:03:03;103894.38;;;5.31;79.72
55456;BME280;63021;52.836;6.376;2023-02-12T01:05:28;103900.56;;;5.32;79.57
55456;BME280;63021;52.836;6.376;2023-02-12T01:07:54;103889.09;;;5.31;79.67
55456;BME280;63021;52.836;6.376;2023-02-12T01:10:20;103891.69;;;5.33;79.95
55456;BME280;63021;52.836;6.376;2023-02-12T01:12:46;103894.34;;;5.34;79.73
55456;BME280;63021;52.836;6.376;2023-02-12T01:15:12;103886.41;;;5.33;79.83
55456;BME280;63021;52.836;6.376;2023-02-12T01:17:38;103882.03;;;5.33;80.27
55456;BME280;63021;52.836;6.376;2023-02-12T01:20:07;103882.81;;;5.37;80.20
55456;BME280;63021;52.836;6.376;2023-02-12T01:22:34;103908.44;;;5.33;80.30
55456;BME280;63021;52.836;6.376;2023-02-12T01:24:59;103900.47;;;5.35;80.81
55456;BME280;63021;52.836;6.376;2023-02-12T01:27:25;103894.28;;;5.36;80.45
55456;BME280;63021;52.836;6.376;2023-02-12T01:29:50;103897.78;;;5.36;80.32
55456;BME280;63021;52.836;6.376;2023-02-12T01:32:15;103902.22;;;5.36;80.35
55456;BME280;63021;52.836;6.376;2023-02-12T01:34:41;103891.69;;;5.33;80.36
55456;BME280;63021;52.836;6.376;2023-02-12T01:37:06;103910.19;;;5.34;80.33
55456;BME280;63021;52.836;6.376;2023-02-12T01:39:32;103910.19;;;5.34;80.94
55456;BME280;63021;52.836;6.376;2023-02-12T01:41:58;103897.88;;;5.33;80.80
55456;BME280;63021;52.836;6.376;2023-02-12T01:44:27;103899.63;;;5.34;80.99
55456;BME280;63021;52.836;6.376;2023-02-12T01:47:04;103898.72;;;5.34;80.71
55456;BME280;63021;52.836;6.376;2023-02-12T01:49:36;103885.47;;;5.35;80.55
55456;BME280;63021;52.836;6.376;2023-02-12T01:52:19;103893.44;;;5.34;81.16
55456;BME280;63021;52.836;6.376;2023-02-12T01:54:46;103913.72;;;5.33;81.09
55456;BME280;63021;52.836;6.376;2023-02-12T01:57:13;103888.16;;;5.34;81.05
55456;BME280;63021;52.836;6.376;2023-02-12T01:59:42;103893.38;;;5.37;81.20
55456;BME280;63021;52.836;6.376;2023-02-12T02:02:08;103889.00;;;5.36;80.92
55456;BME280;63021;52.836;6.376;2023-02-12T02:04:40;103893.31;;;5.38;81.19
55456;BME280;63021;52.836;6.376;2023-02-12T02:07:08;103885.53;;;5.34;81.59
55456;BME280;63021;52.836;6.376;2023-02-12T02:09:35;103887.22;;;5.36;81.59
55456;BME280;63021;52.836;6.376;2023-02-12T02:12:01;103883.69;;;5.37;81.31
55456;BME280;63021;52.836;6.376;2023-02-12T02:14:47;103872.28;;;5.35;81.33
55456;BME280;63021;52.836;6.376;2023-02-12T02:20:26;103876.66;;;5.36;81.44
55456;BME280;63021;52.836;6.376;2023-02-12T02:28:39;103886.41;;;5.33;81.69
55456;BME280;63021;52.836;6.376;2023-02-12T02:31:16;103876.75;;;5.33;81.23
55456;BME280;63021;52.836;6.376;2023-02-12T02:33:58;103879.38;;;5.33;82.04
55456;BME280;63021;52.836;6.376;2023-02-12T02:41:54;103866.94;;;5.37;81.97
55456;BME280;63021;52.836;6.376;2023-02-12T02:44:40;103890.75;;;5.35;81.59
55456;BME280;63021;52.836;6.376;2023-02-12T02:47:09;103855.69;;;5.30;81.38
55456;BME280;63021;52.836;6.376;2023-02-12T02:49:44;103873.19;;;5.34;82.08
55456;BME280;63021;52.836;6.376;2023-02-12T02:52:16;103856.59;;;5.29;81.91
55456;BME280;63021;52.836;6.376;2023-02-12T02:54:47;103860.00;;;5.33;82.07
55456;BME280;63021;52.836;6.376;2023-02-12T02:57:18;103860.00;;;5.33;81.79
55456;BME280;63021;52.836;6.376;2023-02-12T02:59:51;103859.19;;;5.31;82.05
55456;BME280;63021;52.836;6.376;2023-02-12T03:02:23;103871.56;;;5.29;81.85
55456;BME280;63021;52.836;6.376;2023-02-12T03:04:54;103855.94;;;5.19;81.99
55456;BME280;63021;52.836;6.376;2023-02-12T03:07:46;103890.19;;;5.23;81.70
55456;BME280;63021;52.836;6.376;2023-02-12T03:10:17;103863.91;;;5.18;81.72
55456;BME280;63021;52.836;6.376;2023-02-12T03:12:51;103864.09;;;5.10;81.65
55456;BME280;63021;52.836;6.376;2023-02-12T03:17:48;103886.97;;;5.10;81.99
55456;BME280;63021;52.836;6.376;2023-02-12T03:22:49;103869.47;;;5.06;81.56
55456;BME280;63021;52.836;6.376;2023-02-12T03:25:22;103864.25;;;5.02;82.16
55456;BME280;63021;52.836;6.376;2023-02-12T03:27:59;103868.69;;;5.02;82.27
55456;BME280;63021;52.836;6.376;2023-02-12T03:30:58;103887.25;;;4.99;81.73
55456;BME280;63021;52.836;6.376;2023-02-12T03:34:03;103874.09;;;4.97;82.22
55456;BME280;63021;52.836;6.376;2023-02-12T03:45:35;103872.47;;;4.90;81.53
55456;BME280;63021;52.836;6.376;2023-02-12T03:51:09;103875.31;;;4.81;82.33
55456;BME280;63021;52.836;6.376;2023-02-12T03:53:35;103874.28;;;4.88;82.27
55456;BME280;63021;52.836;6.376;2023-02-12T03:56:05;103878.69;;;4.88;82.06
55456;BME280;63021;52.836;6.376;2023-02-12T03:58:34;103894.53;;;4.88;82.41
55456;BME280;63021;52.836;6.376;2023-02-12T04:01:02;103901.56;;;4.89;82.25
55456;BME280;63021;52.836;6.376;2023-02-12T04:03:29;103897.13;;;4.89;82.36
55456;BME280;63021;52.836;6.376;2023-02-12T04:05:54;103886.63;;;4.88;82.68
55456;BME280;63021;52.836;6.376;2023-02-12T04:08:20;103890.97;;;4.90;82.06
55456;BME280;63021;52.836;6.376;2023-02-12T04:16:32;103887.34;;;4.94;81.99
55456;BME280;63021;52.836;6.376;2023-02-12T04:18:59;103909.34;;;4.95;82.24
55456;BME280;63021;52.836;6.376;2023-02-12T04:29:57;103916.34;;;4.96;82.23
55456;BME280;63021;52.836;6.376;2023-02-12T04:38:04;103898.66;;;4.99;82.42
55456;BME280;63021;52.836;6.376;2023-02-12T04:40:33;103906.50;;;5.02;82.02
55456;BME280;63021;52.836;6.376;2023-02-12T04:42:59;103911.75;;;5.04;81.99
55456;BME280;63021;52.836;6.376;2023-02-12T04:45:28;103905.63;;;5.03;82.11
55456;BME280;63021;52.836;6.376;2023-02-12T04:47:54;103909.97;;;5.06;81.73
55456;BME280;63021;52.836;6.376;2023-02-12T04:50:20;103921.38;;;5.07;82.00
55456;BME280;63021;52.836;6.376;2023-02-12T04:52:45;103910.81;;;5.07;81.94
55456;BME280;63021;52.836;6.376;2023-02-12T04:55:11;103917.00;;;5.06;81.88
55456;BME280;63021;52.836;6.376;2023-02-12T04:57:36;103919.63;;;5.06;81.57
55456;BME280;63021;52.836;6.376;2023-02-12T05:00:06;103920.66;;;5.00;81.79
55456;BME280;63021;52.836;6.376;2023-02-12T05:02:33;103921.34;;;5.08;82.04
55456;BME280;63021;52.836;6.376;2023-02-12T05:04:58;103920.44;;;5.09;81.63
55456;BME280;63021;52.836;6.376;2023-02-12T05:07:24;103909.88;;;5.09;81.35
55456;BME280;63021;52.836;6.376;2023-02-12T05:09:49;103919.59;;;5.09;81.50
55456;BME280;63021;52.836;6.376;2023-02-12T05:12:14;103909.06;;;5.07;81.91
55456;BME280;63021;52.836;6.376;2023-02-12T05:14:40;103919.59;;;5.09;81.26
55456;BME280;63021;52.836;6.376;2023-02-12T05:17:05;103905.50;;;5.08;81.50
55456;BME280;63021;52.836;6.376;2023-02-12T05:19:31;103912.53;;;5.09;81.44
55456;BME280;63021;52.836;6.376;2023-02-12T05:21:56;103909.16;;;5.02;81.43
55456;BME280;63021;52.836;6.376;2023-02-12T05:24:21;103924.91;;;5.07;81.39
55456;BME280;63021;52.836;6.376;2023-02-12T05:26:48;103897.88;;;4.96;81.52
55456;BME280;63021;52.836;6.376;2023-02-12T05:29:14;103912.69;;;5.03;81.42
55456;BME280;63021;52.836;6.376;2023-02-12T05:31:39;103917.16;;;4.99;81.79
55456;BME280;63021;52.836;6.376;2023-02-12T05:34:06;103926.72;;;5.03;81.63
55456;BME280;63021;52.836;6.376;2023-02-12T05:36:34;103911.88;;;4.99;81.82
55456;BME280;63021;52.836;6.376;2023-02-12T05:38:59;103914.38;;;5.04;81.66
55456;BME280;63021;52.836;6.376;2023-02-12T05:41:25;103916.22;;;5.02;81.35
55456;BME280;63021;52.836;6.376;2023-02-12T05:43:51;103928.59;;;4.98;81.57
55456;BME280;63021;52.836;6.376;2023-02-12T05:46:17;103930.28;;;5.02;81.72
55456;BME280;63021;52.836;6.376;2023-02-12T05:48:43;103942.56;;;5.03;81.82
55456;BME280;63021;52.836;6.376;2023-02-12T05:51:16;103927.59;;;5.04;82.16
55456;BME280;63021;52.836;6.376;2023-02-12T05:53:44;103931.97;;;5.05;81.51
55456;BME280;63021;52.836;6.376;2023-02-12T05:56:16;103921.41;;;5.05;82.08
55456;BME280;63021;52.836;6.376;2023-02-12T05:58:44;103917.97;;;5.03;81.72
55456;BME280;63021;52.836;6.376;2023-02-12T06:01:15;103932.84;;;5.06;81.35
55456;BME280;63021;52.836;6.376;2023-02-12T06:03:42;103946.03;;;5.06;81.48
55456;BME280;63021;52.836;6.376;2023-02-12T06:06:08;103933.72;;;5.06;81.38
55456;BME280;63021;52.836;6.376;2023-02-12T06:08:34;103934.59;;;5.07;81.66
55456;BME280;63021;52.836;6.376;2023-02-12T06:11:01;103926.66;;;5.07;81.19
55456;BME280;63021;52.836;6.376;2023-02-12T06:13:28;103955.75;;;5.05;81.64
55456;BME280;63021;52.836;6.376;2023-02-12T06:15:53;103939.97;;;5.02;81.11
55456;BME280;63021;52.836;6.376;2023-02-12T06:18:18;103955.78;;;5.03;81.72
55456;BME280;63021;52.836;6.376;2023-02-12T06:20:44;103946.06;;;5.04;81.57
55456;BME280;63021;52.836;6.376;2023-02-12T06:23:09;103937.28;;;5.03;81.46
55456;BME280;63021;52.836;6.376;2023-02-12T06:25:34;103954.94;;;5.03;81.61
55456;BME280;63021;52.836;6.376;2023-02-12T06:28:00;103940.94;;;4.98;80.96
55456;BME280;63021;52.836;6.376;2023-02-12T06:30:25;103944.44;;;5.00;81.43
55456;BME280;63021;52.836;6.376;2023-02-12T06:32:50;103947.06;;;5.00;81.40
55456;BME280;63021;52.836;6.376;2023-02-12T06:35:16;103932.19;;;4.96;81.39
55456;BME280;63021;52.836;6.376;2023-02-12T06:37:41;103958.50;;;5.00;81.43
55456;BME280;63021;52.836;6.376;2023-02-12T06:40:07;103935.69;;;4.96;81.35
55456;BME280;63021;52.836;6.376;2023-02-12T06:42:32;103941.81;;;4.98;81.43
55456;BME280;63021;52.836;6.376;2023-02-12T06:44:58;103946.25;;;4.96;80.94
55456;BME280;63021;52.836;6.376;2023-02-12T06:47:23;103962.91;;;4.98;81.67
55456;BME280;63021;52.836;6.376;2023-02-12T06:49:49;103937.44;;;4.97;81.47
55456;BME280;63021;52.836;6.376;2023-02-12T06:52:14;103962.03;;;4.99;81.65
55456;BME280;63021;52.836;6.376;2023-02-12T06:54:39;103945.28;;;5.00;81.29
55456;BME280;63021;52.836;6.376;2023-02-12T06:57:05;103957.56;;;5.03;81.70
55456;BME280;63021;52.836;6.376;2023-02-12T06:59:30;103964.56;;;5.04;81.51
55456;BME280;63021;52.836;6.376;2023-02-12T07:01:56;103962.81;;;5.05;81.25
55456;BME280;63021;52.836;6.376;2023-02-12T07:04:21;103971.63;;;5.03;81.57
55456;BME280;63021;52.836;6.376;2023-02-12T07:06:47;103967.19;;;5.04;81.64
55456;BME280;63021;52.836;6.376;2023-02-12T07:09:12;103973.53;;;4.97;81.62
55456;BME280;63021;52.836;6.376;2023-02-12T07:11:38;103968.97;;;5.03;81.50
55456;BME280;63021;52.836;6.376;2023-02-12T07:14:04;103974.25;;;5.03;81.07
55456;BME280;63021;52.836;6.376;2023-02-12T07:16:29;103975.16;;;5.02;81.01
55456;BME280;63021;52.836;6.376;2023-02-12T07:18:55;103985.75;;;5.01;81.80
55456;BME280;63021;52.836;6.376;2023-02-12T07:21:20;103956.88;;;4.93;81.57
55456;BME280;63021;52.836;6.376;2023-02-12T07:23:47;103975.13;;;5.04;81.43
55456;BME280;63021;52.836;6.376;2023-02-12T07:26:14;103985.78;;;4.99;81.64
55456;BME280;63021;52.836;6.376;2023-02-12T07:28:40;103985.66;;;5.07;81.11
55456;BME280;63021;52.836;6.376;2023-02-12T07:31:12;103985.59;;;5.09;81.42
55456;BME280;63021;52.836;6.376;2023-02-12T07:33:40;104004.13;;;5.07;81.20
55456;BME280;63021;52.836;6.376;2023-02-12T07:36:09;103984.66;;;5.11;80.96
55456;BME280;63021;52.836;6.376;2023-02-12T07:38:35;103992.53;;;5.13;81.18
55456;BME280;63021;52.836;6.376;2023-02-12T07:41:17;104000.41;;;5.16;81.40
55456;BME280;63021;52.836;6.376;2023-02-12T07:43:44;103996.84;;;5.17;81.13
55456;BME280;63021;52.836;6.376;2023-02-12T07:46:12;104018.88;;;5.17;81.38
55456;BME280;63021;52.836;6.376;2023-02-12T07:48:39;103994.22;;;5.17;81.29
55456;BME280;63021;52.836;6.376;2023-02-12T07:51:08;104003.78;;;5.23;81.21
55456;BME280;63021;52.836;6.376;2023-02-12T07:53:34;104008.13;;;5.25;81.10
55456;BME280;63021;52.836;6.376;2023-02-12T07:56:08;104003.69;;;5.26;80.96
55456;BME280;63021;52.836;6.376;2023-02-12T07:58:34;104000.13;;;5.28;80.91
55456;BME280;63021;52.836;6.376;2023-02-12T08:00:59;103998.41;;;5.26;81.02
55456;BME280;63021;52.836;6.376;2023-02-12T08:03:27;104003.53;;;5.33;81.13
55456;BME280;63021;52.836;6.376;2023-02-12T08:05:53;104012.38;;;5.32;80.72
55456;BME280;63021;52.836;6.376;2023-02-12T08:08:18;104005.25;;;5.36;81.19
55456;BME280;63021;52.836;6.376;2023-02-12T08:10:43;104015.72;;;5.41;81.12
55456;BME280;63021;52.836;6.376;2023-02-12T08:13:09;104016.59;;;5.40;80.86
55456;BME280;63021;52.836;6.376;2023-02-12T08:15:34;104012.97;;;5.45;81.20
55456;BME280;63021;52.836;6.376;2023-02-12T08:17:59;104015.56;;;5.47;81.12
55456;BME280;63021;52.836;6.376;2023-02-12T08:20:25;104018.16;;;5.48;81.26
55456;BME280;63021;52.836;6.376;2023-02-12T08:22:51;104018.94;;;5.53;81.05
55456;BME280;63021;52.836;6.376;2023-02-12T08:25:16;104021.47;;;5.58;81.42
55456;BME280;63021;52.836;6.376;2023-02-12T08:27:42;104028.44;;;5.62;80.97
55456;BME280;63021;52.836;6.376;2023-02-12T08:30:08;104005.69;;;5.55;80.95
55456;BME280;63021;52.836;6.376;2023-02-12T08:32:33;104020.34;;;5.68;80.66
55456;BME280;63021;52.836;6.376;2023-02-12T08:34:59;104031.72;;;5.72;80.47
55456;BME280;63021;52.836;6.376;2023-02-12T08:37:24;104052.78;;;5.75;80.49
55456;BME280;63021;52.836;6.376;2023-02-12T08:39:49;104028.88;;;5.80;80.74
55456;BME280;63021;52.836;6.376;2023-02-12T08:42:15;104042.91;;;5.83;80.92
55456;BME280;63021;52.836;6.376;2023-02-12T08:44:41;104041.91;;;5.87;81.10
55456;BME280;63021;52.836;6.376;2023-02-12T08:47:07;104047.06;;;5.94;80.59
55456;BME280;63021;52.836;6.376;2023-02-12T08:49:34;104034.63;;;5.99;80.94
55456;BME280;63021;52.836;6.376;2023-02-12T08:51:59;104038.03;;;6.04;80.70
55456;BME280;63021;52.836;6.376;2023-02-12T08:54:27;104052.88;;;6.10;81.01
55456;BME280;63021;52.836;6.376;2023-02-12T08:56:54;104050.97;;;6.15;81.14
55456;BME280;63021;52.836;6.376;2023-02-12T08:59:20;104059.66;;;6.20;81.07
55456;BME280;63021;52.836;6.376;2023-02-12T09:01:49;104048.97;;;6.24;81.12
55456;BME280;63021;52.836;6.376;2023-02-12T09:04:20;104044.47;;;6.28;81.25
55456;BME280;63021;52.836;6.376;2023-02-12T09:06:46;104054.94;;;6.33;80.99
55456;BME280;63021;52.836;6.376;2023-02-12T09:09:13;104049.50;;;6.37;80.72
55456;BME280;63021;52.836;6.376;2023-02-12T09:11:39;104053.78;;;6.43;80.51
55456;BME280;63021;52.836;6.376;2023-02-12T09:14:07;104045.84;;;6.43;81.08
55456;BME280;63021;52.836;6.376;2023-02-12T09:16:34;104061.47;;;6.52;80.76
55456;BME280;63021;52.836;6.376;2023-02-12T09:19:00;104051.75;;;6.53;80.95
55456;BME280;63021;52.836;6.376;2023-02-12T09:21:26;104065.66;;;6.61;80.96
55456;BME280;63021;52.836;6.376;2023-02-12T09:23:52;104081.47;;;6.64;80.71
55456;BME280;63021;52.836;6.376;2023-02-12T09:26:22;104051.34;;;6.68;80.56
55456;BME280;63021;52.836;6.376;2023-02-12T09:28:48;104063.59;;;6.72;80.73
55456;BME280;63021;52.836;6.376;2023-02-12T09:31:23;104066.97;;;6.78;80.83
55456;BME280;63021;52.836;6.376;2023-02-12T09:33:51;104064.22;;;6.81;81.04
55456;BME280;63021;52.836;6.376;2023-02-12T09:36:18;104081.72;;;6.86;81.13
55456;BME280;63021;52.836;6.376;2023-02-12T09:38:43;104065.75;;;6.89;80.98
55456;BME280;63021;52.836;6.376;2023-02-12T09:46:53;104063.50;;;7.07;81.09
55456;BME280;63021;52.836;6.376;2023-02-12T09:49:25;104062.34;;;7.16;81.07
55456;BME280;63021;52.836;6.376;2023-02-12T09:51:59;104065.72;;;7.21;81.19
55456;BME280;63021;52.836;6.376;2023-02-12T09:54:33;104063.81;;;7.26;81.06
55456;BME280;63021;52.836;6.376;2023-02-12T09:57:05;104060.16;;;7.30;81.09
55456;BME280;63021;52.836;6.376;2023-02-12T09:59:38;104060.81;;;7.37;81.05
55456;BME280;63021;52.836;6.376;2023-02-12T10:02:13;104074.69;;;7.46;81.15
55456;BME280;63021;52.836;6.376;2023-02-12T10:04:41;104078.06;;;7.52;81.36
55456;BME280;63021;52.836;6.376;2023-02-12T10:07:20;104070.81;;;7.57;81.19
55456;BME280;63021;52.836;6.376;2023-02-12T10:15:43;104065.88;;;7.74;80.99
55456;BME280;63021;52.836;6.376;2023-02-12T10:26:40;104063.50;;;7.93;80.48
55456;BME280;63021;52.836;6.376;2023-02-12T10:29:13;104069.41;;;8.02;81.31
55456;BME280;63021;52.836;6.376;2023-02-12T10:31:54;104076.38;;;8.04;80.49
55456;BME280;63021;52.836;6.376;2023-02-12T10:34:23;104067.47;;;8.07;80.94
55456;BME280;63021;52.836;6.376;2023-02-12T10:36:50;104067.16;;;8.16;81.09
55456;BME280;63021;52.836;6.376;2023-02-12T10:39:28;104062.56;;;8.21;81.13
55456;BME280;63021;52.836;6.376;2023-02-12T10:42:16;104071.19;;;8.28;81.20
55456;BME280;63021;52.836;6.376;2023-02-12T10:44:43;104057.81;;;8.31;80.79
55456;BME280;63021;52.836;6.376;2023-02-12T10:47:23;104067.28;;;8.38;80.78
55456;BME280;63021;52.836;6.376;2023-02-12T10:49:55;104097.28;;;8.40;80.59
55456;BME280;63021;52.836;6.376;2023-02-12T10:52:39;104074.16;;;8.45;80.96
55456;BME280;63021;52.836;6.376;2023-02-12T10:57:57;104062.34;;;8.54;80.49
55456;BME280;63021;52.836;6.376;2023-02-12T11:00:28;104067.44;;;8.60;80.32
55456;BME280;63021;52.836;6.376;2023-02-12T11:05:28;104076.91;;;8.67;80.37
55456;BME280;63021;52.836;6.376;2023-02-12T11:07:53;104059.88;;;8.73;80.40
55456;BME280;63021;52.836;6.376;2023-02-12T11:10:31;104065.97;;;8.77;80.55
55456;BME280;63021;52.836;6.376;2023-02-12T11:13:02;104072.06;;;8.79;80.47
55456;BME280;63021;52.836;6.376;2023-02-12T11:15:35;104072.72;;;8.86;80.32
55456;BME280;63021;52.836;6.376;2023-02-12T11:18:03;104060.25;;;8.88;79.91
55456;BME280;63021;52.836;6.376;2023-02-12T11:20:48;104070.72;;;8.92;80.10
55456;BME280;63021;52.836;6.376;2023-02-12T11:26:03;104067.88;;;8.97;79.63
55456;BME280;63021;52.836;6.376;2023-02-12T11:28:30;104064.31;;;8.98;79.29
55456;BME280;63021;52.836;6.376;2023-02-12T11:33:29;104070.19;;;9.06;79.35
55456;BME280;63021;52.836;6.376;2023-02-12T11:36:14;104068.41;;;9.07;78.90
55456;BME280;63021;52.836;6.376;2023-02-12T11:39:19;104063.97;;;9.07;78.75
55456;BME280;63021;52.836;6.376;2023-02-12T11:41:58;104052.53;;;9.05;78.35
55456;BME280;63021;52.836;6.376;2023-02-12T11:44:27;104046.97;;;9.11;78.68
55456;BME280;63021;52.836;6.376;2023-02-12T11:47:08;104053.16;;;9.12;78.58
55456;BME280;63021;52.836;6.376;2023-02-12T11:49:55;104056.56;;;9.15;78.33
55456;BME280;63021;52.836;6.376;2023-02-12T11:52:25;104052.94;;;9.18;78.75
55456;BME280;63021;52.836;6.376;2023-02-12T11:54:55;104054.72;;;9.17;78.63
55456;BME280;63021;52.836;6.376;2023-02-12T11:57:50;104048.41;;;9.20;77.74
55456;BME280;63021;52.836;6.376;2023-02-12T12:00:29;104047.56;;;9.19;77.87
55456;BME280;63021;52.836;6.376;2023-02-12T12:03:00;104045.00;;;9.16;77.59
55456;BME280;63021;52.836;6.376;2023-02-12T12:05:35;104060.03;;;9.17;77.76
55456;BME280;63021;52.836;6.376;2023-02-12T12:08:10;104039.59;;;9.19;78.26
55456;BME280;63021;52.836;6.376;2023-02-12T12:10:44;104032.41;;;9.22;77.99
55456;BME280;63021;52.836;6.376;2023-02-12T12:13:17;104030.44;;;9.27;77.95
55456;BME280;63021;52.836;6.376;2023-02-12T12:15:49;104017.25;;;9.24;77.50
55456;BME280;63021;52.836;6.376;2023-02-12T12:18:46;104029.44;;;9.29;77.19
55456;BME280;63021;52.836;6.376;2023-02-12T12:24:12;104016.13;;;9.29;77.28
55456;BME280;63021;52.836;6.376;2023-02-12T12:26:41;104015.97;;;9.34;76.97
55456;BME280;63021;52.836;6.376;2023-02-12T12:29:23;104023.91;;;9.35;76.77
55456;BME280;63021;52.836;6.376;2023-02-12T12:31:59;104023.97;;;9.34;76.38
55456;BME280;63021;52.836;6.376;2023-02-12T12:34:27;104026.50;;;9.37;76.75
55456;BME280;63021;52.836;6.376;2023-02-12T12:43:02;104012.16;;;9.41;76.48
55456;BME280;63021;52.836;6.376;2023-02-12T12:45:39;104030.81;;;9.40;76.30
55456;BME280;63021;52.836;6.376;2023-02-12T12:54:01;104010.03;;;9.49;75.91
55456;BME280;63021;52.836;6.376;2023-02-12T13:10:31;104003.84;;;9.49;74.74
55456;BME280;63021;52.836;6.376;2023-02-12T13:15:51;103990.50;;;9.50;74.43
55456;BME280;63021;52.836;6.376;2023-02-12T13:18:45;103986.97;;;9.50;74.46
55456;BME280;63021;52.836;6.376;2023-02-12T13:28:54;103998.16;;;9.36;73.77
55456;BME280;63021;52.836;6.376;2023-02-12T13:31:23;103988.34;;;9.38;73.38
55456;BME280;63021;52.836;6.376;2023-02-12T13:33:53;103983.94;;;9.37;73.81
55456;BME280;63021;52.836;6.376;2023-02-12T13:36:20;103987.53;;;9.36;73.47
55456;BME280;63021;52.836;6.376;2023-02-12T13:41:23;103978.69;;;9.35;73.70
55456;BME280;63021;52.836;6.376;2023-02-12T13:51:48;103972.91;;;9.46;73.05
55456;BME280;63021;52.836;6.376;2023-02-12T13:56:59;103967.81;;;9.42;73.02
55456;BME280;63021;52.836;6.376;2023-02-12T14:02:01;103973.06;;;9.43;72.91
55456;BME280;63021;52.836;6.376;2023-02-12T14:04:33;103969.47;;;9.44;73.05
55456;BME280;63021;52.836;6.376;2023-02-12T14:07:09;103964.22;;;9.43;73.07
55456;BME280;63021;52.836;6.376;2023-02-12T14:14:43;103962.53;;;9.40;72.77
55456;BME280;63021;52.836;6.376;2023-02-12T14:20:22;103961.84;;;9.35;72.75
55456;BME280;63021;52.836;6.376;2023-02-12T14:25:25;103968.22;;;9.31;72.23
55456;BME280;63021;52.836;6.376;2023-02-12T14:28:06;103965.63;;;9.29;72.32
55456;BME280;63021;52.836;6.376;2023-02-12T14:30:36;103965.75;;;9.26;72.61
55456;BME280;63021;52.836;6.376;2023-02-12T14:33:25;103953.44;;;9.24;72.90
55456;BME280;63021;52.836;6.376;2023-02-12T14:36:17;103971.13;;;9.25;72.64
55456;BME280;63021;52.836;6.376;2023-02-12T14:49:25;103960.19;;;9.10;72.34
55456;BME280;63021;52.836;6.376;2023-02-12T14:57:28;103977.22;;;9.05;72.48
55456;BME280;63021;52.836;6.376;2023-02-12T14:59:58;103963.09;;;9.04;72.62
55456;BME280;63021;52.836;6.376;2023-02-12T15:02:29;103957.22;;;8.96;72.16
55456;BME280;63021;52.836;6.376;2023-02-12T15:07:58;103954.53;;;8.96;72.65
55456;BME280;63021;52.836;6.376;2023-02-12T15:10:29;103938.97;;;8.87;72.69
55456;BME280;63021;52.836;6.376;2023-02-12T15:13:14;103952.72;;;8.98;72.02
55456;BME280;63021;52.836;6.376;2023-02-12T15:16:03;103951.88;;;8.96;72.51
55456;BME280;63021;52.836;6.376;2023-02-12T15:18:44;103953.75;;;8.94;72.10
55456;BME280;63021;52.836;6.376;2023-02-12T15:21:22;103945.03;;;8.90;72.48
55456;BME280;63021;52.836;6.376;2023-02-12T15:26:42;103945.09;;;8.89;72.88
55456;BME280;63021;52.836;6.376;2023-02-12T15:29:20;103945.16;;;8.87;72.47
55456;BME280;63021;52.836;6.376;2023-02-12T15:31:58;103951.38;;;8.86;72.63
55456;BME280;63021;52.836;6.376;2023-02-12T15:34:27;103941.75;;;8.83;72.96
55456;BME280;63021;52.836;6.376;2023-02-12T15:36:59;103943.47;;;8.84;72.87
55456;BME280;63021;52.836;6.376;2023-02-12T15:39:25;103938.16;;;8.84;72.40
55456;BME280;63021;52.836;6.376;2023-02-12T15:41:52;103938.16;;;8.84;72.77
55456;BME280;63021;52.836;6.376;2023-02-12T15:44:22;103939.91;;;8.86;72.99
55456;BME280;63021;52.836;6.376;2023-02-12T15:47:13;103947.88;;;8.86;72.72
55456;BME280;63021;52.836;6.376;2023-02-12T15:49:41;103956.81;;;8.83;72.90
55456;BME280;63021;52.836;6.376;2023-02-12T15:52:18;103943.53;;;8.83;72.65
55456;BME280;63021;52.836;6.376;2023-02-12T15:54:46;103941.84;;;8.80;73.08
55456;BME280;63021;52.836;6.376;2023-02-12T15:57:20;103931.53;;;8.73;72.62
55456;BME280;63021;52.836;6.376;2023-02-12T15:59:50;103963.22;;;8.77;72.96
55456;BME280;63021;52.836;6.376;2023-02-12T16:02:24;103942.88;;;8.76;73.12
55456;BME280;63021;52.836;6.376;2023-02-12T16:04:53;103932.31;;;8.75;73.09